createdAt,value
2023-02-05T00:00:52.825Z,64.94
2023-02-05T00:03:21.052Z,65.44
2023-02-05T00:05:48.901Z,64.78
2023-02-05T00:08:16.762Z,64.99
2023-02-05T00:10:45.006Z,64.33
2023-02-05T00:13:12.824Z,64.94
2023-02-05T00:15:41.138Z,64.26
2023-02-05T00:18:09.380Z,64.81
2023-02-05T00:20:37.269Z,64.67
2023-02-05T00:23:05.219Z,64.86
2023-02-05T00:25:33.928Z,66.02
2023-02-05T00:28:02.249Z,66.29
2023-02-05T00:30:30.301Z,66.90
2023-02-05T00:32:58.595Z,65.26
2023-02-05T00:35:26.422Z,65.80
2023-02-05T00:37:54.238Z,65.87
2023-02-05T00:40:22.490Z,66.90
2023-02-05T00:42:50.335Z,66.24
2023-02-05T00:45:18.225Z,66.76
2023-02-05T00:47:46.623Z,66.95
2023-02-05T00:50:14.478Z,66.27
2023-02-05T00:52:42.433Z,66.32
2023-02-05T00:55:11.136Z,66.55
2023-02-05T00:57:39.027Z,66.51
2023-02-05T01:00:07.332Z,66.35
2023-02-05T01:02:35.668Z,65.44
2023-02-05T01:05:03.765Z,66.19
2023-02-05T01:07:31.770Z,66.13
2023-02-05T01:10:00.943Z,66.08
2023-02-05T01:12:28.834Z,66.28
2023-02-05T01:14:57.292Z,66.06
2023-02-05T01:17:25.649Z,66.71
2023-02-05T01:19:53.714Z,66.36
2023-02-05T01:22:21.721Z,66.43
2023-02-05T01:24:51.055Z,66.55
2023-02-05T01:27:19.050Z,67.73
2023-02-05T01:29:47.035Z,65.93
2023-02-05T01:32:16.358Z,65.68
2023-02-05T01:34:44.788Z,66.42
2023-02-05T01:37:13.259Z,66.90
2023-02-05T01:39:43.018Z,66.69
2023-02-05T01:42:42.010Z,66.65
2023-02-05T01:45:23.647Z,66.65
2023-02-05T01:47:59.530Z,68.40
2023-02-05T01:50:40.445Z,67.42
2023-02-05T01:53:17.421Z,67.64
2023-02-05T01:56:00.097Z,67.72
2023-02-05T01:58:31.813Z,67.92
2023-02-05T02:01:00.576Z,68.75
2023-02-05T02:03:30.805Z,68.17
2023-02-05T02:05:58.734Z,68.00
2023-02-05T02:08:27.016Z,66.81
2023-02-05T02:10:56.544Z,66.92
2023-02-05T02:13:25.634Z,67.69
2023-02-05T02:15:54.359Z,68.47
2023-02-05T02:18:28.583Z,68.25
2023-02-05T02:21:08.756Z,68.31
2023-02-05T02:23:48.688Z,69.44
2023-02-05T02:26:43.932Z,68.94
2023-02-05T02:29:18.542Z,69.33
2023-02-05T02:32:11.113Z,68.51
2023-02-05T02:34:46.776Z,68.29
2023-02-05T02:37:22.151Z,68.80
2023-02-05T02:40:01.108Z,67.72
2023-02-05T02:42:41.879Z,68.31
2023-02-05T02:45:11.907Z,67.74
2023-02-05T02:47:48.110Z,68.71
2023-02-05T02:50:22.556Z,68.98
2023-02-05T02:52:51.752Z,69.07
2023-02-05T02:55:20.534Z,68.89
2023-02-05T02:57:49.530Z,69.67
2023-02-05T03:00:25.276Z,70.33
2023-02-05T03:02:58.264Z,69.08
2023-02-05T03:05:27.407Z,69.59
2023-02-05T03:08:02.744Z,68.72
2023-02-05T03:10:48.667Z,68.86
2023-02-05T03:13:16.869Z,67.82
2023-02-05T03:15:46.609Z,69.42
2023-02-05T03:18:16.453Z,69.27
2023-02-05T03:20:57.052Z,69.10
2023-02-05T03:23:27.285Z,69.24
2023-02-05T03:25:55.331Z,69.27
2023-02-05T03:28:23.856Z,68.70
2023-02-05T03:31:00.278Z,68.51
2023-02-05T03:33:42.586Z,68.47
2023-02-05T03:36:26.945Z,70.15
2023-02-05T03:39:07.469Z,69.40
2023-02-05T03:41:57.220Z,68.86
2023-02-05T03:44:59.556Z,69.10
2023-02-05T03:47:39.110Z,69.06
2023-02-05T03:50:16.233Z,68.97
2023-02-05T03:52:50.795Z,68.94
2023-02-05T03:55:22.340Z,68.57
2023-02-05T03:58:07.870Z,68.59
2023-02-05T04:00:37.003Z,70.41
2023-02-05T04:03:05.296Z,67.92
2023-02-05T04:05:33.626Z,68.35
2023-02-05T04:08:02.421Z,68.91
2023-02-05T04:10:31.955Z,68.63
2023-02-05T04:13:00.433Z,67.61
2023-02-05T04:15:28.950Z,67.74
2023-02-05T04:18:00.333Z,66.89
2023-02-05T04:20:28.477Z,67.10
2023-02-05T04:22:56.554Z,67.26
2023-02-05T04:25:25.320Z,66.55
2023-02-05T04:27:54.553Z,66.64
2023-02-05T04:30:22.797Z,67.42
2023-02-05T04:32:51.344Z,66.67
2023-02-05T04:35:19.200Z,66.92
2023-02-05T04:37:48.132Z,66.84
2023-02-05T04:40:17.160Z,65.86
2023-02-05T04:42:45.529Z,65.40
2023-02-05T04:45:13.673Z,66.02
2023-02-05T04:47:42.119Z,66.40
2023-02-05T04:50:10.195Z,66.05
2023-02-05T04:52:38.028Z,66.33
2023-02-05T04:55:06.838Z,66.06
2023-02-05T04:57:34.785Z,66.71
2023-02-05T05:00:03.524Z,65.73
2023-02-05T05:02:32.272Z,65.45
2023-02-05T05:05:00.228Z,65.97
2023-02-05T05:07:31.175Z,65.73
2023-02-05T05:09:59.348Z,65.26
2023-02-05T05:12:27.176Z,64.45
2023-02-05T05:14:54.969Z,65.32
2023-02-05T05:17:23.099Z,66.28
2023-02-05T05:19:50.968Z,67.05
2023-02-05T05:22:18.932Z,65.87
2023-02-05T05:24:47.171Z,65.33
2023-02-05T05:27:15.125Z,65.92
2023-02-05T05:29:43.637Z,64.03
2023-02-05T05:32:12.008Z,64.47
2023-02-05T05:34:40.079Z,65.14
2023-02-05T05:37:07.983Z,65.17
2023-02-05T05:39:54.647Z,64.60
2023-02-05T05:42:41.634Z,64.28
2023-02-05T05:45:09.891Z,64.94
2023-02-05T05:47:38.127Z,64.22
2023-02-05T05:50:06.467Z,65.51
2023-02-05T05:52:34.925Z,64.44
2023-02-05T05:55:03.137Z,64.90
2023-02-05T05:57:31.283Z,65.00
2023-02-05T05:59:59.633Z,63.92
2023-02-05T06:02:27.559Z,65.28
2023-02-05T06:04:55.816Z,65.16
2023-02-05T06:07:23.599Z,63.09
2023-02-05T06:09:51.472Z,64.72
2023-02-05T06:12:19.654Z,64.71
2023-02-05T06:14:47.394Z,64.71
2023-02-05T06:17:15.243Z,64.85
2023-02-05T06:19:43.363Z,63.80
2023-02-05T06:22:11.229Z,63.44
2023-02-05T06:24:39.034Z,62.41
2023-02-05T06:27:07.279Z,62.85
2023-02-05T06:29:35.281Z,62.18
2023-02-05T06:32:03.267Z,62.28
2023-02-05T06:34:31.764Z,60.98
2023-02-05T06:36:59.744Z,59.89
2023-02-05T06:39:27.806Z,60.75
2023-02-05T06:41:56.026Z,61.50
2023-02-05T06:44:24.529Z,61.04
2023-02-05T06:46:52.392Z,61.12
2023-02-05T06:49:20.852Z,61.61
2023-02-05T06:51:48.668Z,60.83
2023-02-05T06:54:16.588Z,61.00
2023-02-05T06:56:44.999Z,62.36
2023-02-05T06:59:12.809Z,60.67
2023-02-05T07:01:40.817Z,59.36
2023-02-05T07:04:09.153Z,60.21
2023-02-05T07:06:37.028Z,61.34
2023-02-05T07:09:04.987Z,59.56
2023-02-05T07:11:33.340Z,57.90
2023-02-05T07:14:02.470Z,58.13
2023-02-05T07:16:31.077Z,57.50
2023-02-05T07:18:59.350Z,56.76
2023-02-05T07:21:27.291Z,57.11
2023-02-05T07:23:55.082Z,57.30
2023-02-05T07:26:24.120Z,59.27
2023-02-05T07:28:51.996Z,58.89
2023-02-05T07:31:20.585Z,55.91
2023-02-05T07:33:49.146Z,54.61
2023-02-05T07:36:18.402Z,57.97
2023-02-05T07:38:47.407Z,53.76
2023-02-05T07:41:16.444Z,55.94
2023-02-05T07:43:44.634Z,54.57
2023-02-05T07:46:14.603Z,54.15
2023-02-05T07:48:42.863Z,53.80
2023-02-05T07:51:19.949Z,51.89
2023-02-05T07:53:48.353Z,53.92
2023-02-05T07:56:17.154Z,53.79
2023-02-05T07:58:45.123Z,52.89
2023-02-05T08:01:13.393Z,53.18
2023-02-05T08:03:41.618Z,54.24
2023-02-05T08:06:14.082Z,53.91
2023-02-05T08:08:42.553Z,54.14
2023-02-05T08:11:15.106Z,53.52
2023-02-05T08:13:44.101Z,54.45
2023-02-05T08:16:12.820Z,54.30
2023-02-05T08:18:40.678Z,54.58
2023-02-05T08:21:08.939Z,53.47
2023-02-05T08:23:36.861Z,53.23
2023-02-05T08:26:04.974Z,55.03
2023-02-05T08:28:33.225Z,53.30
2023-02-05T08:31:01.558Z,53.98
2023-02-05T08:33:29.608Z,53.78
2023-02-05T08:35:58.649Z,50.25
2023-02-05T08:38:26.528Z,50.34
2023-02-05T08:40:54.514Z,50.25
2023-02-05T08:43:22.831Z,49.82
2023-02-05T08:45:50.734Z,49.57
2023-02-05T08:48:18.628Z,49.23
2023-02-05T08:50:47.492Z,49.69
2023-02-05T08:53:15.414Z,50.73
2023-02-05T08:55:43.417Z,49.90
2023-02-05T08:58:11.680Z,49.51
2023-02-05T09:00:40.358Z,46.89
2023-02-05T09:03:08.955Z,45.46
2023-02-05T09:05:39.295Z,45.79
2023-02-05T09:08:07.205Z,46.22
2023-02-05T09:10:35.422Z,48.19
2023-02-05T09:13:04.100Z,47.78
2023-02-05T09:15:32.207Z,51.50
2023-02-05T09:18:00.172Z,52.50
2023-02-05T09:20:28.418Z,52.94
2023-02-05T09:22:56.243Z,52.59
2023-02-05T09:25:24.117Z,52.61
2023-02-05T09:27:52.382Z,54.39
2023-02-05T09:30:20.410Z,53.49
2023-02-05T09:32:48.266Z,52.55
2023-02-05T09:35:16.527Z,51.81
2023-02-05T09:37:44.380Z,53.34
2023-02-05T09:40:23.872Z,52.88
2023-02-05T09:43:21.977Z,50.76
2023-02-05T09:45:56.969Z,46.72
2023-02-05T09:48:57.213Z,47.51
2023-02-05T09:51:34.968Z,49.01
2023-02-05T09:54:14.171Z,51.58
2023-02-05T09:56:44.018Z,50.42
2023-02-05T09:59:21.909Z,50.27
2023-02-05T10:02:00.370Z,49.97
2023-02-05T10:04:29.315Z,51.23
2023-02-05T10:07:32.646Z,48.31
2023-02-05T10:10:18.426Z,48.24
2023-02-05T10:13:12.715Z,44.25
2023-02-05T10:15:49.962Z,40.11
2023-02-05T10:18:41.653Z,38.62
2023-02-05T10:21:21.978Z,40.60
2023-02-05T10:24:17.234Z,37.84
2023-02-05T10:26:54.205Z,40.66
2023-02-05T10:29:40.676Z,40.48
2023-02-05T10:32:24.832Z,35.15
2023-02-05T10:35:28.057Z,33.21
2023-02-05T10:37:57.844Z,33.56
2023-02-05T10:40:29.428Z,37.15
2023-02-05T10:43:04.319Z,39.90
2023-02-05T10:45:32.267Z,42.13
2023-02-05T10:48:32.780Z,41.77
2023-02-05T10:51:14.174Z,43.49
2023-02-05T10:53:42.930Z,44.55
2023-02-05T10:56:16.971Z,42.69
2023-02-05T10:58:55.047Z,42.83
2023-02-05T11:01:25.711Z,42.99
2023-02-05T11:03:58.475Z,45.88
2023-02-05T11:06:29.297Z,44.39
2023-02-05T11:08:57.847Z,45.76
2023-02-05T11:11:30.469Z,45.24
2023-02-05T11:14:05.237Z,45.58
2023-02-05T11:16:39.161Z,46.18
2023-02-05T11:19:18.317Z,44.82
2023-02-05T11:21:55.116Z,43.04
2023-02-05T11:24:39.645Z,44.80
2023-02-05T11:27:16.783Z,46.32
2023-02-05T11:29:44.979Z,43.67
2023-02-05T11:32:32.784Z,43.86
2023-02-05T11:35:20.943Z,39.82
2023-02-05T11:38:01.942Z,38.65
2023-02-05T11:40:32.570Z,35.82
2023-02-05T11:43:30.169Z,32.14
2023-02-05T11:46:00.000Z,33.17
2023-02-05T11:48:53.865Z,33.25
2023-02-05T11:51:36.517Z,33.45
2023-02-05T11:54:12.201Z,35.36
2023-02-05T11:56:40.391Z,39.38
2023-02-05T11:59:23.722Z,40.60
2023-02-05T12:01:51.955Z,38.37
2023-02-05T12:04:21.732Z,32.75
2023-02-05T12:06:55.291Z,33.05
2023-02-05T12:09:27.724Z,33.80
2023-02-05T12:12:36.762Z,32.71
2023-02-05T12:15:23.915Z,31.49
2023-02-05T12:18:00.408Z,31.95
2023-02-05T12:20:39.304Z,36.70
2023-02-05T12:23:28.685Z,35.77
2023-02-05T12:26:15.789Z,35.74
2023-02-05T12:28:59.414Z,35.10
2023-02-05T12:31:50.159Z,35.71
2023-02-05T12:34:27.921Z,36.34
2023-02-05T12:37:11.688Z,37.63
2023-02-05T12:40:15.392Z,37.40
2023-02-05T12:43:02.202Z,38.16
2023-02-05T12:46:01.229Z,37.49
2023-02-05T12:48:48.384Z,39.16
2023-02-05T12:51:27.625Z,37.85
2023-02-05T12:54:17.982Z,38.42
2023-02-05T12:56:59.927Z,38.92
2023-02-05T12:59:49.857Z,38.75
2023-02-05T13:02:31.817Z,39.86
2023-02-05T13:05:37.015Z,40.30
2023-02-05T13:08:18.866Z,39.33
2023-02-05T13:11:03.984Z,40.11
2023-02-05T13:13:49.396Z,39.68
2023-02-05T13:16:19.053Z,41.64
2023-02-05T13:19:11.397Z,40.91
2023-02-05T13:21:58.042Z,39.08
2023-02-05T13:24:49.454Z,39.84
2023-02-05T13:27:47.481Z,38.66
2023-02-05T13:30:44.736Z,39.93
2023-02-05T13:33:13.049Z,38.86
2023-02-05T13:35:50.696Z,39.61
2023-02-05T13:38:21.862Z,39.60
2023-02-05T13:41:18.450Z,41.84
2023-02-05T13:43:55.800Z,40.66
2023-02-05T13:46:43.279Z,38.29
2023-02-05T13:49:11.376Z,38.62
2023-02-05T13:51:54.805Z,40.55
2023-02-05T13:54:38.120Z,38.40
2023-02-05T13:57:34.370Z,39.81
2023-02-05T14:00:04.403Z,39.95
2023-02-05T14:02:51.112Z,39.82
2023-02-05T14:05:38.139Z,39.77
2023-02-05T14:08:06.748Z,39.56
2023-02-05T14:10:42.647Z,39.67
2023-02-05T14:13:37.038Z,39.42
2023-02-05T14:16:24.049Z,40.05
2023-02-05T14:19:00.775Z,40.46
2023-02-05T14:21:31.663Z,40.13
2023-02-05T14:24:22.268Z,40.80
2023-02-05T14:26:56.791Z,40.14
2023-02-05T14:29:44.317Z,40.43
2023-02-05T14:32:24.857Z,41.48
2023-02-05T14:35:02.480Z,42.04
2023-02-05T14:37:41.568Z,42.21
2023-02-05T14:40:20.491Z,42.36
2023-02-05T14:42:50.860Z,41.20
2023-02-05T14:45:21.760Z,42.01
2023-02-05T14:47:50.402Z,44.70
2023-02-05T14:50:29.255Z,43.30
2023-02-05T14:53:01.130Z,43.48
2023-02-05T14:55:42.445Z,44.95
2023-02-05T14:58:46.189Z,43.66
2023-02-05T15:01:33.239Z,43.66
2023-02-05T15:04:03.162Z,43.02
2023-02-05T15:06:40.541Z,43.94
2023-02-05T15:09:20.934Z,44.65
2023-02-05T15:12:12.497Z,45.30
2023-02-05T15:14:51.542Z,44.41
2023-02-05T15:17:35.890Z,45.77
2023-02-05T15:20:18.020Z,45.27
2023-02-05T15:23:10.052Z,45.05
2023-02-05T15:25:58.438Z,45.56
2023-02-05T15:28:33.066Z,47.07
2023-02-05T15:31:24.440Z,47.96
2023-02-05T15:34:41.659Z,47.57
2023-02-05T15:37:09.817Z,46.78
2023-02-05T15:40:05.406Z,47.22
2023-02-05T15:42:38.333Z,46.91
2023-02-05T15:45:24.842Z,47.23
2023-02-05T15:48:23.882Z,48.02
2023-02-05T15:50:58.725Z,49.08
2023-02-05T15:53:35.940Z,47.57
2023-02-05T15:56:32.018Z,46.71
2023-02-05T15:59:10.700Z,45.81
2023-02-05T16:01:48.199Z,45.97
2023-02-05T16:04:18.795Z,47.31
2023-02-05T16:06:46.732Z,47.36
2023-02-05T16:09:24.382Z,47.93
2023-02-05T16:11:54.313Z,47.81
2023-02-05T16:14:24.463Z,48.10
2023-02-05T16:17:16.045Z,49.18
2023-02-05T16:19:50.707Z,49.87
2023-02-05T16:22:18.946Z,48.94
2023-02-05T16:24:49.171Z,51.13
2023-02-05T16:27:29.824Z,49.63
2023-02-05T16:30:02.173Z,50.70
2023-02-05T16:32:48.632Z,51.60
2023-02-05T16:35:38.048Z,51.78
2023-02-05T16:38:09.416Z,52.05
2023-02-05T16:40:43.625Z,52.65
2023-02-05T16:43:37.241Z,53.01
2023-02-05T16:46:08.490Z,53.05
2023-02-05T16:48:41.922Z,53.02
2023-02-05T16:51:31.867Z,51.57
2023-02-05T16:54:02.513Z,52.25
2023-02-05T16:56:36.105Z,51.45
2023-02-05T16:59:05.145Z,51.74
2023-02-05T17:01:39.639Z,52.69
2023-02-05T17:04:07.946Z,52.38
2023-02-05T17:06:38.166Z,52.25
2023-02-05T17:09:06.508Z,55.13
2023-02-05T17:11:39.646Z,55.08
2023-02-05T17:14:31.699Z,55.37
2023-02-05T17:17:02.675Z,54.74
2023-02-05T17:19:32.659Z,56.36
2023-02-05T17:22:15.880Z,55.56
2023-02-05T17:24:49.423Z,56.39
2023-02-05T17:27:20.288Z,55.08
2023-02-05T17:29:48.549Z,57.02
2023-02-05T17:32:18.679Z,58.07
2023-02-05T17:34:46.911Z,58.09
2023-02-05T17:37:15.581Z,58.61
2023-02-05T17:39:43.564Z,57.37
2023-02-05T17:42:31.450Z,57.10
2023-02-05T17:44:59.726Z,57.54
2023-02-05T17:47:27.600Z,57.59
2023-02-05T17:49:55.651Z,57.75
2023-02-05T17:52:25.140Z,57.45
2023-02-05T17:54:54.635Z,57.45
2023-02-05T17:57:23.898Z,57.94
2023-02-05T17:59:53.280Z,57.78
2023-02-05T18:02:21.557Z,57.64
2023-02-05T18:04:50.391Z,57.52
2023-02-05T18:07:40.652Z,58.21
2023-02-05T18:10:14.256Z,58.25
2023-02-05T18:12:42.776Z,57.99
2023-02-05T18:15:13.275Z,58.63
2023-02-05T18:17:42.067Z,57.77
2023-02-05T18:20:16.803Z,57.35
2023-02-05T18:22:44.740Z,58.45
2023-02-05T18:25:13.123Z,58.14
2023-02-05T18:27:42.267Z,58.81
2023-02-05T18:30:10.791Z,58.20
2023-02-05T18:32:39.053Z,59.05
2023-02-05T18:35:09.349Z,59.86
2023-02-05T18:37:37.475Z,58.04
2023-02-05T18:40:06.191Z,57.29
2023-02-05T18:42:34.574Z,56.11
2023-02-05T18:45:03.003Z,57.08
2023-02-05T18:47:31.393Z,56.94
2023-02-05T18:49:59.429Z,57.02
2023-02-05T18:52:30.166Z,56.34
2023-02-05T18:54:58.460Z,56.34
2023-02-05T18:57:26.558Z,57.44
2023-02-05T18:59:54.470Z,55.90
2023-02-05T19:02:22.717Z,55.05
2023-02-05T19:04:55.952Z,54.34
2023-02-05T19:07:25.036Z,53.95
2023-02-05T19:09:56.359Z,53.72
2023-02-05T19:12:24.645Z,55.03
2023-02-05T19:14:52.521Z,54.61
2023-02-05T19:17:20.738Z,54.70
2023-02-05T19:19:49.982Z,53.42
2023-02-05T19:22:18.122Z,53.58
2023-02-05T19:24:46.434Z,54.76
2023-02-05T19:27:16.149Z,58.62
2023-02-05T19:29:46.812Z,59.43
2023-02-05T19:32:14.999Z,55.82
2023-02-05T19:34:43.469Z,54.21
2023-02-05T19:37:12.402Z,54.72
2023-02-05T19:39:40.856Z,54.70
2023-02-05T19:42:08.984Z,54.74
2023-02-05T19:44:36.986Z,55.10
2023-02-05T19:47:05.413Z,56.49
2023-02-05T19:49:33.401Z,56.40
2023-02-05T19:52:01.620Z,56.28
2023-02-05T19:54:30.653Z,56.92
2023-02-05T19:56:58.651Z,58.07
2023-02-05T19:59:26.587Z,58.77
2023-02-05T20:01:55.042Z,58.81
2023-02-05T20:04:25.757Z,58.93
2023-02-05T20:06:58.688Z,57.96
2023-02-05T20:09:27.655Z,58.68
2023-02-05T20:11:55.913Z,58.87
2023-02-05T20:14:24.298Z,59.24
2023-02-05T20:16:52.872Z,60.63
2023-02-05T20:19:21.232Z,59.92
2023-02-05T20:21:49.484Z,60.11
2023-02-05T20:24:17.922Z,60.10
2023-02-05T20:26:48.624Z,62.07
2023-02-05T20:29:35.781Z,61.28
2023-02-05T20:32:04.613Z,61.13
2023-02-05T20:34:35.866Z,62.04
2023-02-05T20:37:07.048Z,61.66
2023-02-05T20:39:35.517Z,61.43
2023-02-05T20:42:03.868Z,63.24
2023-02-05T20:44:34.013Z,59.57
2023-02-05T20:47:06.002Z,59.30
2023-02-05T20:49:35.864Z,62.09
2023-02-05T20:52:04.858Z,61.85
2023-02-05T20:54:33.057Z,62.17
2023-02-05T20:57:01.420Z,59.94
2023-02-05T20:59:32.693Z,59.37
2023-02-05T21:02:01.190Z,59.65
2023-02-05T21:04:29.797Z,60.02
2023-02-05T21:06:58.591Z,58.80
2023-02-05T21:09:26.475Z,59.18
2023-02-05T21:11:55.755Z,59.54
2023-02-05T21:14:23.908Z,60.83
2023-02-05T21:16:52.393Z,62.00
2023-02-05T21:19:20.760Z,58.60
2023-02-05T21:21:50.084Z,58.44
2023-02-05T21:24:18.859Z,58.33
2023-02-05T21:26:49.289Z,58.67
2023-02-05T21:29:19.813Z,58.49
2023-02-05T21:31:57.163Z,57.98
2023-02-05T21:34:27.449Z,58.99
2023-02-05T21:36:56.237Z,59.43
2023-02-05T21:39:25.999Z,58.28
2023-02-05T21:41:54.502Z,57.28
2023-02-05T21:44:23.678Z,56.75
2023-02-05T21:46:53.922Z,61.16
2023-02-05T21:49:22.331Z,63.39
2023-02-05T21:51:53.374Z,65.76
2023-02-05T21:54:25.338Z,65.11
2023-02-05T21:56:54.159Z,69.16
2023-02-05T21:59:22.374Z,63.71
2023-02-05T22:01:50.647Z,60.19
2023-02-05T22:04:20.500Z,60.63
2023-02-05T22:06:48.492Z,58.94
2023-02-05T22:09:17.062Z,58.44
2023-02-05T22:11:45.778Z,59.70
2023-02-05T22:14:13.881Z,59.93
2023-02-05T22:16:41.883Z,60.38
2023-02-05T22:19:10.404Z,59.92
2023-02-05T22:21:41.166Z,58.53
2023-02-05T22:24:13.467Z,59.89
2023-02-05T22:26:42.370Z,61.94
2023-02-05T22:29:15.799Z,61.65
2023-02-05T22:31:46.938Z,61.83
2023-02-05T22:34:14.983Z,60.50
2023-02-05T22:36:43.658Z,60.54
2023-02-05T22:39:11.659Z,61.66
2023-02-05T22:41:41.871Z,62.84
2023-02-05T22:44:12.505Z,62.35
2023-02-05T22:46:44.423Z,63.20
2023-02-05T22:49:15.497Z,63.82
2023-02-05T22:51:43.844Z,63.14
2023-02-05T22:54:13.806Z,63.67
2023-02-05T22:56:41.940Z,63.78
2023-02-05T22:59:09.874Z,63.35
2023-02-05T23:01:39.334Z,63.48
2023-02-05T23:04:08.716Z,62.75
2023-02-05T23:06:43.321Z,63.26
2023-02-05T23:09:16.847Z,63.16
2023-02-05T23:11:44.918Z,66.03
2023-02-05T23:14:14.633Z,67.60
2023-02-05T23:16:43.983Z,67.09
2023-02-05T23:19:16.506Z,69.31
2023-02-05T23:21:45.080Z,67.71
2023-02-05T23:24:13.503Z,65.64
2023-02-05T23:26:44.437Z,66.54
2023-02-05T23:29:14.884Z,66.59
2023-02-05T23:31:43.093Z,65.37
2023-02-05T23:34:11.662Z,66.27
2023-02-05T23:36:40.056Z,67.49
2023-02-05T23:39:07.981Z,65.67
2023-02-05T23:41:36.394Z,64.80
2023-02-05T23:44:10.721Z,66.28
2023-02-05T23:46:40.359Z,65.82
2023-02-05T23:49:09.458Z,65.37
2023-02-05T23:51:38.426Z,64.09
2023-02-05T23:54:07.461Z,63.46
2023-02-05T23:56:35.837Z,64.12
2023-02-05T23:59:04.961Z,65.75
